Time;durP1;ratioP1;P1;durP2;ratioP2;P2;SDS_P1;SDS_P2;PMS_P1;PMS_P2;Temp;Humidity;BMP_temperature;BMP_pressure;BME280_temperature;BME280_humidity;BME280_pressure;Samples;Min_cycle;Max_cycle;Signal;HPM_P1;HPM_P2
2023/12/28 00:01:39;;;;;;;6.47;6.00;;;1.40;99.90;;;;;;5094011;28;20231;-62
2023/12/28 00:04:06;;;;;;;6.93;6.35;;;1.30;99.90;;;;;;5093569;28;20342;-62
2023/12/28 00:06:34;;;;;;;7.07;5.38;;;1.30;99.90;;;;;;5093463;28;20205;-61
2023/12/28 00:09:01;;;;;;;6.65;4.90;;;1.30;99.90;;;;;;5093534;28;20211;-62
2023/12/28 00:11:28;;;;;;;4.95;4.50;;;1.30;99.90;;;;;;5093246;28;20714;-62
2023/12/28 00:13:55;;;;;;;7.07;6.50;;;1.30;99.90;;;;;;5093626;28;20265;-62
2023/12/28 00:16:22;;;;;;;6.43;5.88;;;1.30;99.90;;;;;;5093318;28;20236;-62
2023/12/28 00:18:48;;;;;;;5.68;4.88;;;1.30;99.90;;;;;;5093140;28;20667;-62
2023/12/28 00:21:15;;;;;;;7.82;5.60;;;1.30;99.90;;;;;;5101952;22;20244;-56
2023/12/28 00:23:43;;;;;;;5.82;5.32;;;1.30;99.90;;;;;;5072841;28;20721;-59
2023/12/28 00:26:10;;;;;;;7.35;6.40;;;1.30;99.90;;;;;;5071767;28;20202;-58
2023/12/28 00:28:37;;;;;;;4.88;4.03;;;1.30;99.90;;;;;;5071422;28;20877;-56
2023/12/28 00:31:04;;;;;;;7.57;5.22;;;1.30;99.90;;;;;;5072748;28;20226;-58
2023/12/28 00:33:31;;;;;;;6.30;5.13;;;1.30;99.90;;;;;;5073115;28;20252;-58
2023/12/28 00:35:58;;;;;;;5.32;4.93;;;1.30;99.90;;;;;;5072865;28;20206;-60
2023/12/28 00:38:25;;;;;;;5.20;4.30;;;1.20;99.90;;;;;;5072342;28;20305;-56
2023/12/28 00:40:53;;;;;;;5.85;5.38;;;1.30;99.90;;;;;;5072490;28;20328;-58
2023/12/28 00:43:20;;;;;;;5.15;4.70;;;1.30;99.90;;;;;;5072812;28;20206;-59
2023/12/28 00:45:47;;;;;;;4.38;4.07;;;1.30;99.90;;;;;;5072694;28;20312;-55
2023/12/28 00:48:13;;;;;;;5.38;4.97;;;1.30;99.90;;;;;;5072633;28;20703;-53
2023/12/28 00:50:40;;;;;;;4.30;4.00;;;1.30;99.90;;;;;;5071940;28;20218;-56
2023/12/28 00:53:07;;;;;;;5.72;4.65;;;1.30;99.90;;;;;;5072431;28;20727;-57
2023/12/28 00:55:34;;;;;;;4.43;4.07;;;1.30;99.90;;;;;;5071311;28;20293;-57
2023/12/28 00:58:02;;;;;;;5.00;4.50;;;1.30;99.90;;;;;;5072345;28;20209;-59
2023/12/28 01:00:29;;;;;;;5.68;4.68;;;1.30;99.90;;;;;;5071181;28;20312;-57
2023/12/28 01:02:56;;;;;;;5.10;4.60;;;1.30;99.90;;;;;;5072329;28;20225;-58
2023/12/28 01:05:25;;;;;;;4.88;4.50;;;1.30;99.90;;;;;;5071479;28;20233;-61
2023/12/28 01:07:52;;;;;;;5.63;5.05;;;1.30;99.90;;;;;;5072275;28;20586;-57
2023/12/28 01:10:19;;;;;;;5.43;5.00;;;1.30;99.90;;;;;;5070874;28;20700;-57
2023/12/28 01:12:46;;;;;;;5.60;5.00;;;1.30;99.90;;;;;;5072294;28;20259;-59
2023/12/28 01:15:17;;;;;;;5.50;4.80;;;1.30;99.90;;;;;;5071958;28;20281;-59
2023/12/28 01:17:44;;;;;;;6.88;4.68;;;1.30;99.90;;;;;;5072171;28;20637;-58
2023/12/28 01:20:11;;;;;;;6.43;5.40;;;1.30;99.90;;;;;;5071124;28;20312;-55
2023/12/28 01:22:38;;;;;;;5.97;5.47;;;1.30;99.90;;;;;;5070865;28;20289;-59
2023/12/28 01:25:06;;;;;;;6.47;5.07;;;1.30;99.90;;;;;;5071159;28;20224;-57
2023/12/28 01:27:33;;;;;;;5.35;4.88;;;1.30;99.90;;;;;;5069429;28;20252;-58
2023/12/28 01:29:59;;;;;;;4.70;4.30;;;1.30;99.90;;;;;;5071074;28;20305;-57
2023/12/28 01:32:28;;;;;;;5.47;5.07;;;1.30;99.90;;;;;;5071447;28;20232;-60
2023/12/28 01:34:54;;;;;;;6.13;5.20;;;1.30;99.90;;;;;;5071370;28;20210;-57
2023/12/28 01:37:21;;;;;;;6.32;5.72;;;1.30;99.90;;;;;;5071775;28;20209;-57
2023/12/28 01:39:48;;;;;;;5.80;5.28;;;1.30;99.90;;;;;;5071508;28;20201;-59
2023/12/28 01:42:15;;;;;;;5.95;5.38;;;1.30;99.90;;;;;;5071632;28;20221;-57
2023/12/28 01:44:42;;;;;;;7.10;6.20;;;1.30;99.90;;;;;;5071420;28;20222;-60
2023/12/28 01:47:09;;;;;;;7.47;6.75;;;1.30;99.90;;;;;;5071396;28;20205;-59
2023/12/28 01:49:37;;;;;;;6.78;6.18;;;1.30;99.90;;;;;;5071120;28;20206;-58
2023/12/28 01:52:06;;;;;;;6.18;5.70;;;1.30;99.90;;;;;;5071592;28;20216;-59
2023/12/28 01:54:34;;;;;;;6.47;5.88;;;1.30;99.90;;;;;;5070986;28;20236;-56
2023/12/28 01:57:02;;;;;;;7.05;6.30;;;1.30;99.90;;;;;;5071334;28;20208;-60
2023/12/28 01:59:29;;;;;;;5.68;5.18;;;1.30;99.90;;;;;;5070745;28;20293;-61
2023/12/28 02:01:56;;;;;;;6.82;5.57;;;1.30;99.90;;;;;;5070590;28;20752;-58
2023/12/28 02:04:27;;;;;;;7.18;6.47;;;1.30;99.90;;;;;;5071113;28;20210;-61
2023/12/28 02:06:58;;;;;;;5.75;4.93;;;1.30;99.90;;;;;;5070436;28;20220;-60
2023/12/28 02:09:25;;;;;;;7.20;6.60;;;1.30;99.90;;;;;;5070345;28;20218;-60
2023/12/28 02:11:52;;;;;;;5.93;5.45;;;1.30;99.90;;;;;;5070762;28;20224;-55
2023/12/28 02:14:19;;;;;;;6.20;5.70;;;1.30;99.90;;;;;;5070863;28;20214;-59
2023/12/28 02:16:51;;;;;;;5.70;5.07;;;1.30;99.90;;;;;;5071375;28;20208;-58
2023/12/28 02:19:29;;;;;;;5.25;4.75;;;1.40;99.90;;;;;;5070915;28;20292;-59
2023/12/28 02:22:00;;;;;;;4.10;3.90;;;1.40;99.90;;;;;;5070985;28;20225;-59
2023/12/28 02:24:26;;;;;;;9.25;4.70;;;1.40;99.90;;;;;;5070766;28;20205;-58
2023/12/28 02:26:55;;;;;;;6.65;5.93;;;1.40;99.90;;;;;;5070177;28;20739;-60
2023/12/28 02:29:22;;;;;;;7.35;5.70;;;1.50;99.90;;;;;;5070968;28;20218;-59
2023/12/28 02:31:57;;;;;;;6.15;5.65;;;1.50;99.90;;;;;;5071253;28;20601;-60
2023/12/28 02:34:28;;;;;;;5.70;5.20;;;1.50;99.90;;;;;;5070491;28;20208;-61
2023/12/28 02:36:57;;;;;;;5.90;5.47;;;1.60;99.90;;;;;;5071050;28;20780;-60
2023/12/28 02:39:25;;;;;;;5.18;4.78;;;1.60;99.90;;;;;;5070200;28;20775;-57
2023/12/28 02:41:55;;;;;;;6.22;5.45;;;1.60;99.90;;;;;;5070812;28;20221;-54
2023/12/28 02:44:23;;;;;;;6.70;5.15;;;1.60;99.90;;;;;;5069615;28;20814;-58
2023/12/28 02:46:50;;;;;;;4.38;4.00;;;1.70;99.90;;;;;;5063256;28;20228;-60
2023/12/28 02:49:16;;;;;;;6.30;5.70;;;1.70;99.90;;;;;;5070659;28;20228;-57
2023/12/28 02:51:43;;;;;;;4.93;4.53;;;1.80;99.90;;;;;;5070683;28;20225;-60
2023/12/28 02:54:10;;;;;;;5.20;4.80;;;1.90;99.90;;;;;;5070910;28;20674;-59
2023/12/28 02:56:37;;;;;;;6.60;5.40;;;1.90;99.90;;;;;;5070803;28;20208;-59
2023/12/28 02:59:04;;;;;;;5.18;4.72;;;2.00;99.90;;;;;;5070854;28;20221;-60
2023/12/28 03:01:32;;;;;;;6.43;5.43;;;2.00;99.90;;;;;;5070442;28;20230;-61
2023/12/28 03:03:59;;;;;;;6.88;5.75;;;2.10;99.90;;;;;;5070713;28;20202;-54
2023/12/28 03:06:26;;;;;;;5.75;5.22;;;2.20;99.90;;;;;;5070414;28;20226;-59
2023/12/28 03:08:52;;;;;;;9.95;7.47;;;2.20;99.90;;;;;;5070279;28;20202;-59
2023/12/28 03:11:20;;;;;;;5.75;5.18;;;2.30;99.90;;;;;;5069831;28;20231;-59
2023/12/28 03:13:48;;;;;;;5.47;4.97;;;2.30;99.90;;;;;;5070276;28;20198;-59
2023/12/28 03:16:15;;;;;;;5.75;5.35;;;2.30;99.90;;;;;;5069642;28;20247;-59
2023/12/28 03:18:43;;;;;;;5.65;5.03;;;2.40;99.90;;;;;;5073010;28;20589;-56
2023/12/28 03:21:10;;;;;;;5.22;4.80;;;2.50;99.90;;;;;;5074076;28;20233;-58
2023/12/28 03:23:36;;;;;;;4.80;4.20;;;2.50;99.90;;;;;;5074596;28;20202;-58
2023/12/28 03:26:03;;;;;;;10.40;5.90;;;2.50;99.90;;;;;;5074639;28;20317;-57
2023/12/28 03:28:30;;;;;;;4.18;3.90;;;2.60;99.90;;;;;;5074005;28;20206;-59
2023/12/28 03:30:58;;;;;;;5.53;5.07;;;2.60;99.90;;;;;;5073765;28;20245;-60
2023/12/28 03:33:27;;;;;;;5.00;4.60;;;2.70;99.90;;;;;;5074065;28;20217;-60
2023/12/28 03:35:55;;;;;;;5.50;5.10;;;2.70;99.90;;;;;;5074207;28;20202;-57
2023/12/28 03:38:22;;;;;;;5.47;4.53;;;2.80;99.90;;;;;;5073954;28;20210;-53
2023/12/28 03:40:50;;;;;;;5.70;5.00;;;2.80;99.90;;;;;;5067415;28;20227;-59
2023/12/28 03:43:16;;;;;;;5.57;5.07;;;2.90;99.90;;;;;;5074115;28;20210;-59
2023/12/28 03:45:43;;;;;;;5.22;4.82;;;2.90;99.90;;;;;;5074119;28;20298;-57
2023/12/28 03:48:10;;;;;;;5.18;4.78;;;3.00;99.90;;;;;;5073955;28;20281;-58
2023/12/28 03:50:37;;;;;;;5.68;4.50;;;3.00;99.90;;;;;;5073636;28;20225;-57
2023/12/28 03:53:05;;;;;;;5.72;4.65;;;3.10;99.90;;;;;;5074627;28;20206;-58
2023/12/28 03:55:32;;;;;;;5.95;5.38;;;3.10;99.90;;;;;;5074061;28;20206;-57
2023/12/28 03:57:59;;;;;;;5.25;4.75;;;3.20;99.90;;;;;;5074253;28;20294;-55
2023/12/28 04:00:26;;;;;;;4.15;3.85;;;3.20;99.90;;;;;;5074141;28;20735;-57
2023/12/28 04:02:52;;;;;;;5.63;4.60;;;3.30;99.90;;;;;;5074367;28;20217;-55
2023/12/28 04:05:19;;;;;;;7.47;5.10;;;3.40;99.90;;;;;;5074468;28;20232;-57
2023/12/28 04:07:45;;;;;;;5.25;4.40;;;3.40;99.90;;;;;;5074274;28;20214;-56
2023/12/28 04:10:13;;;;;;;6.00;5.50;;;3.50;99.90;;;;;;5074078;28;20341;-59
2023/12/28 04:12:40;;;;;;;5.28;4.40;;;3.50;99.90;;;;;;5074368;28;20831;-56
2023/12/28 04:15:07;;;;;;;6.07;5.47;;;3.60;99.90;;;;;;5073828;28;20206;-60
2023/12/28 04:17:34;;;;;;;8.70;4.80;;;3.60;99.90;;;;;;5074178;28;20205;-57
2023/12/28 04:20:01;;;;;;;5.55;4.90;;;3.60;99.90;;;;;;5073959;28;20711;-59
2023/12/28 04:22:27;;;;;;;4.57;4.28;;;3.70;99.90;;;;;;5073883;28;20206;-57
2023/12/28 04:24:54;;;;;;;5.50;5.00;;;3.70;99.90;;;;;;5073893;28;20253;-61
2023/12/28 04:27:22;;;;;;;9.35;5.15;;;3.70;99.90;;;;;;5074047;28;20220;-58
2023/12/28 04:29:49;;;;;;;5.00;4.60;;;3.80;99.90;;;;;;5072338;28;20202;-56
2023/12/28 04:32:16;;;;;;;4.82;4.40;;;3.80;99.90;;;;;;5072839;28;20209;-57
2023/12/28 04:34:43;;;;;;;5.13;4.72;;;3.90;99.90;;;;;;5073669;28;20300;-58
2023/12/28 04:37:10;;;;;;;6.45;4.88;;;3.90;99.90;;;;;;5073769;28;20214;-55
2023/12/28 04:39:38;;;;;;;4.63;4.22;;;4.00;99.90;;;;;;5073442;28;20224;-57
2023/12/28 04:42:05;;;;;;;7.10;5.35;;;4.00;99.90;;;;;;5073750;28;20297;-58
2023/12/28 04:44:33;;;;;;;5.65;5.15;;;4.00;99.90;;;;;;5073860;28;20297;-58
2023/12/28 04:47:01;;;;;;;6.82;4.70;;;4.10;99.90;;;;;;5073637;28;20229;-58
2023/12/28 04:49:28;;;;;;;5.82;5.18;;;4.10;99.90;;;;;;5073479;28;20244;-58
2023/12/28 04:51:55;;;;;;;9.57;5.32;;;4.10;99.90;;;;;;5073540;28;20312;-57
2023/12/28 04:54:22;;;;;;;9.43;5.65;;;4.20;99.90;;;;;;5073470;28;20676;-59
2023/12/28 04:56:49;;;;;;;5.00;4.65;;;4.20;99.90;;;;;;5073381;28;20292;-59
2023/12/28 04:59:16;;;;;;;5.70;5.20;;;4.30;99.90;;;;;;5073354;28;20209;-58
2023/12/28 05:01:44;;;;;;;6.93;5.95;;;4.30;99.90;;;;;;5073416;28;20251;-55
2023/12/28 05:04:11;;;;;;;5.18;4.63;;;4.40;99.90;;;;;;5073318;28;20208;-56
2023/12/28 05:06:38;;;;;;;5.88;5.38;;;4.40;99.90;;;;;;5073055;28;20317;-55
2023/12/28 05:09:05;;;;;;;4.28;3.97;;;4.40;99.90;;;;;;5072948;28;20210;-58
2023/12/28 05:11:32;;;;;;;5.15;4.75;;;4.50;99.90;;;;;;5073290;28;20230;-59
2023/12/28 05:13:59;;;;;;;4.72;4.30;;;4.50;99.90;;;;;;5073134;28;20209;-58
2023/12/28 05:16:26;;;;;;;4.50;4.10;;;4.50;99.90;;;;;;5072982;28;20208;-58
2023/12/28 05:18:54;;;;;;;4.82;4.43;;;4.60;99.90;;;;;;5072791;28;20205;-59
2023/12/28 05:21:21;;;;;;;4.38;3.95;;;4.60;99.90;;;;;;5072685;28;20259;-59
2023/12/28 05:23:48;;;;;;;4.45;4.05;;;4.60;99.90;;;;;;5072920;28;20213;-55
2023/12/28 05:26:15;;;;;;;4.60;3.97;;;4.70;99.90;;;;;;5072978;28;20255;-58
2023/12/28 05:28:42;;;;;;;3.97;3.67;;;4.90;99.90;;;;;;5072611;28;20632;-58
2023/12/28 05:31:09;;;;;;;4.30;3.38;;;5.10;99.90;;;;;;5072657;28;20316;-57
2023/12/28 05:33:35;;;;;;;5.85;3.05;;;5.30;99.90;;;;;;5072795;28;20609;-58
2023/12/28 05:36:04;;;;;;;4.38;3.17;;;5.60;99.90;;;;;;5072536;28;20208;-57
2023/12/28 05:38:31;;;;;;;3.03;2.72;;;5.80;99.90;;;;;;5072619;28;20202;-59
2023/12/28 05:40:57;;;;;;;2.95;2.75;;;5.90;99.90;;;;;;5072336;28;20225;-56
2023/12/28 05:43:24;;;;;;;2.97;2.78;;;6.00;99.90;;;;;;5072643;28;20787;-58
2023/12/28 05:45:51;;;;;;;2.45;2.25;;;6.10;99.90;;;;;;5072316;28;20309;-59
2023/12/28 05:48:18;;;;;;;3.80;3.45;;;6.20;99.90;;;;;;5072279;28;20300;-63
2023/12/28 05:50:45;;;;;;;3.65;2.92;;;6.30;99.90;;;;;;5072416;28;20324;-59
2023/12/28 05:53:14;;;;;;;3.25;3.00;;;6.40;99.90;;;;;;5072289;28;20208;-58
2023/12/28 05:55:41;;;;;;;2.47;2.38;;;6.40;99.90;;;;;;5072242;28;20816;-61
2023/12/28 05:58:08;;;;;;;3.00;2.70;;;6.60;99.90;;;;;;5072112;28;20680;-59
2023/12/28 06:00:36;;;;;;;2.70;2.50;;;6.70;99.90;;;;;;5072006;28;20232;-58
2023/12/28 06:03:03;;;;;;;3.38;3.05;;;6.90;99.90;;;;;;5072018;28;20232;-57
2023/12/28 06:05:30;;;;;;;3.47;2.53;;;7.00;99.90;;;;;;5072209;28;20255;-58
2023/12/28 06:07:56;;;;;;;3.00;2.70;;;7.20;99.90;;;;;;5071969;28;20210;-57
2023/12/28 06:10:25;;;;;;;2.97;2.67;;;7.20;99.90;;;;;;5071897;28;20602;-59
2023/12/28 06:12:52;;;;;;;2.25;2.15;;;7.30;99.90;;;;;;5072004;28;20224;-58
2023/12/28 06:15:18;;;;;;;2.67;2.47;;;7.40;99.90;;;;;;5071891;28;20697;-58
2023/12/28 06:17:45;;;;;;;4.50;2.25;;;7.40;99.90;;;;;;5072134;28;20208;-59
2023/12/28 06:20:12;;;;;;;2.90;2.03;;;7.60;99.90;;;;;;5094118;22;20711;-62
2023/12/28 06:22:39;;;;;;;3.00;1.88;;;7.70;99.90;;;;;;5071763;28;20197;-62
2023/12/28 06:25:07;;;;;;;6.32;4.82;;;7.80;99.90;;;;;;5071643;28;20292;-61
2023/12/28 06:27:35;;;;;;;38.08;24.33;;;7.90;99.90;;;;;;5071474;28;20236;-61
2023/12/28 06:30:02;;;;;;;20.00;12.98;;;7.90;99.90;;;;;;5071589;28;20216;-61
2023/12/28 06:32:30;;;;;;;17.75;12.88;;;8.00;99.90;;;;;;5071619;28;20224;-61
2023/12/28 06:34:57;;;;;;;6.85;4.28;;;8.00;99.90;;;;;;5071917;28;20229;-61
2023/12/28 06:37:24;;;;;;;3.30;3.10;;;8.00;99.90;;;;;;5071785;28;20202;-62
2023/12/28 06:39:50;;;;;;;2.97;2.78;;;8.00;99.90;;;;;;5071637;28;20296;-61
2023/12/28 06:42:17;;;;;;;3.30;2.90;;;8.00;99.90;;;;;;5071739;28;20831;-61
2023/12/28 06:44:45;;;;;;;2.92;2.67;;;8.00;99.90;;;;;;5071448;28;20289;-61
2023/12/28 06:47:13;;;;;;;3.00;2.78;;;8.00;99.90;;;;;;5071270;28;20217;-62
2023/12/28 06:49:39;;;;;;;3.55;3.30;;;7.90;99.90;;;;;;5071640;28;20206;-61
2023/12/28 06:52:06;;;;;;;4.40;4.10;;;7.90;99.90;;;;;;5071145;28;20221;-61
2023/12/28 06:54:33;;;;;;;3.08;2.88;;;7.90;99.90;;;;;;5071687;28;20219;-61
2023/12/28 06:57:01;;;;;;;5.00;4.50;;;7.90;99.90;;;;;;5071424;28;20197;-61
2023/12/28 06:59:28;;;;;;;5.53;5.10;;;7.90;99.90;;;;;;5071371;28;20255;-62
2023/12/28 07:01:56;;;;;;;5.35;4.95;;;8.00;99.90;;;;;;5071809;28;20286;-61
2023/12/28 07:04:25;;;;;;;2.70;2.50;;;8.00;99.90;;;;;;5071458;28;20676;-62
2023/12/28 07:06:52;;;;;;;7.97;7.47;;;8.00;99.90;;;;;;5071458;28;20330;-62
2023/12/28 07:09:19;;;;;;;5.45;5.05;;;8.10;99.90;;;;;;5071302;28;20212;-62
2023/12/28 07:11:44;;;;;;;5.70;5.20;;;8.20;99.90;;;;;;5070557;28;20236;-61
2023/12/28 07:14:11;;;;;;;2.93;2.73;;;8.20;99.90;;;;;;5071281;28;20293;-62
2023/12/28 07:16:38;;;;;;;3.00;2.72;;;8.20;99.90;;;;;;5071462;28;20304;-62
2023/12/28 07:19:06;;;;;;;3.03;2.83;;;8.20;99.90;;;;;;5071042;28;20208;-60
2023/12/28 07:21:33;;;;;;;5.13;3.85;;;8.20;99.90;;;;;;5068943;28;20226;-61
2023/12/28 07:24:00;;;;;;;3.77;3.53;;;8.20;99.90;;;;;;5070188;28;20821;-61
2023/12/28 07:26:27;;;;;;;3.60;3.10;;;8.30;99.90;;;;;;5070271;28;20558;-62
2023/12/28 07:28:54;;;;;;;2.33;2.13;;;8.30;99.90;;;;;;5070218;28;20664;-62
2023/12/28 07:31:25;;;;;;;2.63;2.42;;;8.20;99.90;;;;;;5069880;28;20468;-62
2023/12/28 07:33:52;;;;;;;2.50;2.33;;;8.20;99.90;;;;;;5070446;28;20237;-61
2023/12/28 07:36:20;;;;;;;3.90;1.85;;;8.30;99.90;;;;;;5071038;28;20515;-62
2023/12/28 07:38:47;;;;;;;2.13;1.92;;;8.30;99.90;;;;;;5070461;28;20209;-63
2023/12/28 07:41:14;;;;;;;2.20;2.10;;;8.30;99.90;;;;;;5070156;28;20309;-62
2023/12/28 07:43:41;;;;;;;2.20;2.05;;;8.30;99.90;;;;;;5070626;28;20208;-62
2023/12/28 07:46:07;;;;;;;2.50;2.30;;;8.30;99.90;;;;;;5069706;28;20204;-62
2023/12/28 07:48:34;;;;;;;2.45;1.98;;;8.30;99.90;;;;;;5069969;28;20467;-62
2023/12/28 07:51:05;;;;;;;2.80;2.47;;;8.40;99.90;;;;;;5070569;28;20221;-62
2023/12/28 07:53:33;;;;;;;2.25;2.15;;;8.40;99.90;;;;;;5070789;28;20217;-62
2023/12/28 07:56:00;;;;;;;1.88;1.80;;;8.40;99.90;;;;;;5070577;28;20205;-62
2023/12/28 07:58:27;;;;;;;3.67;2.67;;;8.50;99.90;;;;;;5070500;28;20308;-62
2023/12/28 08:00:54;;;;;;;3.13;1.80;;;8.40;99.90;;;;;;5070767;28;20225;-62
2023/12/28 08:03:21;;;;;;;1.98;1.77;;;8.50;99.90;;;;;;5070774;28;20301;-63
2023/12/28 08:05:47;;;;;;;3.88;1.70;;;8.50;99.90;;;;;;5073511;28;20216;-61
2023/12/28 08:08:14;;;;;;;2.83;1.80;;;8.60;99.90;;;;;;5074209;28;20229;-62
2023/12/28 08:10:42;;;;;;;3.13;1.92;;;8.60;99.90;;;;;;5073894;28;20233;-62
2023/12/28 08:13:09;;;;;;;2.08;1.90;;;8.60;99.90;;;;;;5074447;28;20210;-61
2023/12/28 08:15:36;;;;;;;2.50;2.00;;;8.70;99.90;;;;;;5073647;28;20206;-62
2023/12/28 08:18:04;;;;;;;2.13;2.00;;;8.70;99.90;;;;;;5074034;28;20202;-61
2023/12/28 08:20:31;;;;;;;2.20;2.00;;;8.70;99.90;;;;;;5073568;28;20306;-62
2023/12/28 08:22:57;;;;;;;2.03;1.73;;;8.80;99.90;;;;;;5073925;28;20205;-62
2023/12/28 08:25:24;;;;;;;2.38;2.17;;;8.80;99.90;;;;;;5074245;28;20205;-62
2023/12/28 08:27:52;;;;;;;2.08;1.85;;;8.80;99.90;;;;;;5073877;28;20316;-62
2023/12/28 08:30:19;;;;;;;2.30;2.20;;;8.80;99.90;;;;;;5073906;28;20226;-62
2023/12/28 08:32:46;;;;;;;2.30;2.20;;;8.80;99.90;;;;;;5073991;28;20558;-62
2023/12/28 08:35:13;;;;;;;2.17;2.08;;;8.90;99.90;;;;;;5072001;28;20531;-62
2023/12/28 08:37:40;;;;;;;2.20;2.10;;;8.90;99.90;;;;;;5073491;28;20209;-62
2023/12/28 08:40:08;;;;;;;2.27;2.07;;;8.90;99.90;;;;;;5073341;28;20300;-62
2023/12/28 08:42:35;;;;;;;3.33;2.73;;;9.00;99.90;;;;;;5073790;28;20886;-62
2023/12/28 08:45:03;;;;;;;2.20;2.00;;;9.00;99.90;;;;;;5073446;28;20969;-62
2023/12/28 08:47:30;;;;;;;2.50;2.30;;;9.00;99.90;;;;;;5072580;28;20264;-62
2023/12/28 08:49:57;;;;;;;2.00;1.90;;;9.00;99.90;;;;;;5072910;28;20214;-62
2023/12/28 08:52:24;;;;;;;1.90;1.80;;;9.10;99.90;;;;;;5073315;28;20201;-62
2023/12/28 08:54:51;;;;;;;2.22;2.03;;;9.10;99.90;;;;;;5073341;28;20236;-62
2023/12/28 08:57:17;;;;;;;2.50;2.30;;;9.10;99.90;;;;;;5073249;28;20571;-62
2023/12/28 08:59:44;;;;;;;2.90;2.70;;;9.10;99.90;;;;;;5072897;28;20212;-62
2023/12/28 09:02:12;;;;;;;1.90;1.80;;;9.20;99.90;;;;;;5073000;28;20222;-62
2023/12/28 09:04:39;;;;;;;2.20;2.00;;;9.30;99.90;;;;;;5072993;28;20237;-63
2023/12/28 09:07:06;;;;;;;1.87;1.77;;;9.30;99.90;;;;;;5072805;28;20707;-62
2023/12/28 09:09:33;;;;;;;2.38;1.95;;;9.30;99.90;;;;;;5072753;28;20478;-62
2023/12/28 09:12:00;;;;;;;2.37;2.10;;;9.30;99.90;;;;;;5072931;28;20232;-62
2023/12/28 09:14:26;;;;;;;2.30;2.20;;;9.30;99.90;;;;;;5072930;28;20454;-62
2023/12/28 09:16:53;;;;;;;2.03;1.83;;;9.40;99.90;;;;;;5072425;28;20480;-62
2023/12/28 09:19:22;;;;;;;2.33;2.13;;;9.40;99.90;;;;;;5072453;28;20971;-62
2023/12/28 09:21:49;;;;;;;2.90;2.47;;;9.50;99.90;;;;;;5072700;28;20908;-63
2023/12/28 09:24:18;;;;;;;2.20;2.00;;;9.40;99.90;;;;;;5072946;28;20443;-63
2023/12/28 09:26:45;;;;;;;1.80;1.70;;;9.40;99.90;;;;;;5072654;28;20454;-62
2023/12/28 09:29:12;;;;;;;2.53;2.33;;;9.50;99.90;;;;;;5072258;28;20446;-62
2023/12/28 09:31:39;;;;;;;2.17;2.07;;;9.50;99.90;;;;;;5072131;28;20466;-63
2023/12/28 09:34:06;;;;;;;2.97;2.77;;;9.50;99.90;;;;;;5069531;28;20916;-62
2023/12/28 09:36:34;;;;;;;3.08;2.88;;;9.50;99.90;;;;;;5072230;28;20958;-63
2023/12/28 09:39:01;;;;;;;2.70;2.50;;;9.50;99.90;;;;;;5071502;28;20212;-63
2023/12/28 09:41:35;;;;;;;2.83;2.63;;;9.50;99.90;;;;;;5070698;28;20278;-62
2023/12/28 09:44:09;;;;;;;3.33;3.03;;;9.60;99.90;;;;;;5071568;28;20442;-63
2023/12/28 09:46:38;;;;;;;3.08;2.83;;;9.60;99.90;;;;;;5070681;28;20296;-63
2023/12/28 09:49:05;;;;;;;3.10;2.90;;;9.70;99.90;;;;;;5067185;28;20208;-63
2023/12/28 09:51:33;;;;;;;2.93;2.63;;;9.70;99.90;;;;;;5071248;28;20466;-63
2023/12/28 09:54:00;;;;;;;4.07;2.50;;;9.70;99.90;;;;;;5070617;28;20454;-63
2023/12/28 09:56:28;;;;;;;2.03;1.93;;;9.70;99.90;;;;;;5071056;28;20476;-63
2023/12/28 09:58:58;;;;;;;2.30;2.10;;;9.70;99.90;;;;;;5070325;28;20531;-63
2023/12/28 10:01:24;;;;;;;2.27;2.07;;;9.70;99.90;;;;;;5071734;28;20466;-63
2023/12/28 10:03:51;;;;;;;2.40;2.20;;;9.80;99.90;;;;;;5070959;28;20446;-63
2023/12/28 10:06:18;;;;;;;2.30;2.10;;;9.80;99.90;;;;;;5071679;28;20892;-63
2023/12/28 10:08:50;;;;;;;2.80;2.60;;;9.90;99.90;;;;;;5070199;28;21047;-62
2023/12/28 10:11:19;;;;;;;2.80;2.53;;;9.90;99.90;;;;;;5071159;28;20823;-63
2023/12/28 10:13:46;;;;;;;2.17;2.07;;;9.90;99.90;;;;;;5062556;28;20535;-64
2023/12/28 10:16:14;;;;;;;3.00;2.73;;;10.00;99.90;;;;;;5071062;28;20531;-64
2023/12/28 10:18:43;;;;;;;2.13;2.03;;;10.00;99.90;;;;;;5070219;28;20658;-63
2023/12/28 10:21:10;;;;;;;2.10;1.90;;;10.10;99.90;;;;;;5071131;28;20866;-64
2023/12/28 10:23:38;;;;;;;3.10;2.83;;;10.10;99.90;;;;;;5070225;28;20930;-64
2023/12/28 10:26:06;;;;;;;2.20;2.10;;;10.10;99.90;;;;;;5071099;28;20990;-63
2023/12/28 10:28:33;;;;;;;2.27;2.17;;;10.10;99.90;;;;;;5069101;28;20492;-63
2023/12/28 10:31:00;;;;;;;6.07;4.40;;;10.20;99.90;;;;;;5071258;28;20976;-63
2023/12/28 10:33:27;;;;;;;3.47;3.17;;;10.20;99.90;;;;;;5069878;28;20548;-63
2023/12/28 10:35:57;;;;;;;2.67;2.47;;;10.20;99.90;;;;;;5071234;28;20444;-63
2023/12/28 10:38:26;;;;;;;6.23;2.50;;;10.20;99.90;;;;;;5069732;28;20440;-63
2023/12/28 10:40:53;;;;;;;2.33;2.13;;;10.20;99.90;;;;;;5069894;28;20476;-63
2023/12/28 10:43:24;;;;;;;1.90;1.80;;;10.20;99.90;;;;;;5071115;28;20444;-63
2023/12/28 10:45:52;;;;;;;2.80;2.60;;;10.10;99.90;;;;;;5062674;28;20479;-63
2023/12/28 10:48:29;;;;;;;2.33;2.23;;;10.20;99.90;;;;;;5066967;28;20483;-64
2023/12/28 10:51:01;;;;;;;2.30;2.10;;;10.20;99.90;;;;;;5062953;28;20502;-63
2023/12/28 10:53:38;;;;;;;2.20;2.00;;;10.20;99.90;;;;;;5070993;28;20543;-64
2023/12/28 10:56:17;;;;;;;2.37;2.17;;;10.20;99.90;;;;;;5070344;28;20478;-63
2023/12/28 10:58:50;;;;;;;3.73;2.70;;;10.20;99.90;;;;;;5070625;28;20439;-63
2023/12/28 11:01:23;;;;;;;2.47;2.27;;;10.30;99.90;;;;;;5069835;28;20491;-62
2023/12/28 11:03:59;;;;;;;3.27;2.67;;;10.30;99.90;;;;;;5070354;28;20451;-63
2023/12/28 11:06:28;;;;;;;3.30;3.00;;;10.40;99.90;;;;;;5070139;28;20568;-63
2023/12/28 11:08:57;;;;;;;2.80;2.53;;;10.40;99.90;;;;;;5070586;28;20523;-63
2023/12/28 11:11:24;;;;;;;3.10;2.90;;;10.40;99.90;;;;;;5069892;28;20547;-63
2023/12/28 11:13:53;;;;;;;3.97;3.70;;;10.40;99.90;;;;;;5070645;28;20945;-63
2023/12/28 11:16:21;;;;;;;3.10;2.90;;;10.50;99.90;;;;;;5070184;28;20540;-63
2023/12/28 11:18:48;;;;;;;2.50;2.40;;;10.50;99.90;;;;;;5068702;28;20535;-63
2023/12/28 11:21:16;;;;;;;2.57;2.37;;;10.50;99.90;;;;;;5069286;28;21081;-63
2023/12/28 11:23:44;;;;;;;2.53;2.33;;;10.50;99.90;;;;;;5070411;28;20444;-63
2023/12/28 11:26:17;;;;;;;2.63;2.53;;;10.40;99.90;;;;;;5069614;28;20458;-63
2023/12/28 11:28:44;;;;;;;3.67;2.70;;;10.40;99.90;;;;;;5070579;28;20499;-63
2023/12/28 11:31:14;;;;;;;2.63;2.43;;;10.40;99.90;;;;;;5069428;28;20553;-63
2023/12/28 11:33:45;;;;;;;2.40;2.27;;;10.40;99.90;;;;;;5070556;28;20440;-63
2023/12/28 11:36:12;;;;;;;3.27;3.07;;;10.40;99.90;;;;;;5069611;28;20452;-64
2023/12/28 11:38:41;;;;;;;4.00;2.60;;;10.40;99.90;;;;;;5071517;28;20731;-64
2023/12/28 11:41:08;;;;;;;2.97;2.77;;;10.40;99.90;;;;;;5073322;28;20486;-63
2023/12/28 11:43:37;;;;;;;3.53;3.23;;;10.40;99.90;;;;;;5073988;28;21030;-63
2023/12/28 11:46:05;;;;;;;2.73;2.53;;;10.40;99.90;;;;;;5072870;28;20487;-63
2023/12/28 11:48:34;;;;;;;3.90;2.80;;;10.30;99.90;;;;;;5073265;28;20899;-63
2023/12/28 11:51:02;;;;;;;3.30;2.73;;;10.30;99.90;;;;;;5072642;28;20529;-63
2023/12/28 11:53:29;;;;;;;2.75;2.60;;;10.30;99.90;;;;;;5073249;28;20474;-63
2023/12/28 11:56:02;;;;;;;3.60;3.30;;;10.20;99.90;;;;;;5072710;28;20230;-63
2023/12/28 11:58:30;;;;;;;3.10;2.90;;;10.20;99.90;;;;;;5070827;28;20444;-63
2023/12/28 12:00:57;;;;;;;3.90;3.60;;;10.20;99.90;;;;;;5072483;28;20478;-63
2023/12/28 12:03:26;;;;;;;2.90;2.70;;;10.20;99.90;;;;;;5073409;28;20452;-61
2023/12/28 12:05:57;;;;;;;4.47;4.03;;;10.20;99.90;;;;;;5072195;28;20992;-63
2023/12/28 12:08:23;;;;;;;4.00;3.60;;;10.20;99.90;;;;;;5073186;28;20490;-62
2023/12/28 12:11:01;;;;;;;3.33;2.83;;;10.30;99.90;;;;;;5072368;28;20468;-62
2023/12/28 12:13:28;;;;;;;4.53;3.87;;;10.30;99.90;;;;;;5073295;28;20458;-60
2023/12/28 12:15:56;;;;;;;4.13;3.83;;;10.30;99.90;;;;;;5070150;28;20456;-63
2023/12/28 12:18:23;;;;;;;4.03;3.60;;;10.40;99.90;;;;;;5072232;28;20535;-63
2023/12/28 12:20:50;;;;;;;2.80;2.60;;;10.50;99.90;;;;;;5071886;28;20485;-63
2023/12/28 12:23:18;;;;;;;3.00;2.80;;;10.50;99.90;;;;;;5073288;28;20534;-62
2023/12/28 12:25:45;;;;;;;2.60;2.50;;;10.50;99.90;;;;;;5095181;22;20827;-62
2023/12/28 12:28:12;;;;;;;3.20;2.53;;;10.60;99.90;;;;;;5070783;28;20501;-60
2023/12/28 12:30:40;;;;;;;2.23;2.13;;;10.60;99.90;;;;;;5077688;28;20487;-60
2023/12/28 12:33:09;;;;;;;2.20;2.10;;;10.70;99.90;;;;;;5072687;28;20785;-59
2023/12/28 12:35:36;;;;;;;1.97;1.87;;;10.60;99.90;;;;;;5071729;28;20542;-61
2023/12/28 12:38:03;;;;;;;1.70;1.60;;;10.60;99.90;;;;;;5071741;28;20456;-60
2023/12/28 12:40:32;;;;;;;1.57;1.47;;;10.60;99.90;;;;;;5071078;28;20464;-60
2023/12/28 12:43:00;;;;;;;2.70;2.50;;;10.70;99.90;;;;;;5072853;28;20444;-59
2023/12/28 12:45:27;;;;;;;3.13;2.83;;;10.70;99.90;;;;;;5071673;28;20459;-59
2023/12/28 12:47:54;;;;;;;2.37;2.17;;;10.70;99.90;;;;;;5072420;28;20551;-59
2023/12/28 12:50:21;;;;;;;2.53;2.30;;;10.70;99.90;;;;;;5070909;28;20828;-57
2023/12/28 12:52:48;;;;;;;2.50;2.40;;;10.80;99.90;;;;;;5062561;28;20455;-60
2023/12/28 12:55:15;;;;;;;2.13;1.57;;;10.80;99.90;;;;;;5067215;28;20509;-58
2023/12/28 12:57:43;;;;;;;2.70;2.17;;;10.80;99.90;;;;;;5070951;28;20471;-58